Time;durP1;ratioP1;P1;durP2;ratioP2;P2;SDS_P1;SDS_P2;PMS_P1;PMS_P2;Temp;Humidity;BMP_temperature;BMP_pressure;BME280_temperature;BME280_humidity;BME280_pressure;Samples;Min_cycle;Max_cycle;Signal;HPM_P1;HPM_P2
2022/11/06 00:00:45;;;;;;;38.27;29.50;;;6.50;99.90;;;;;;4983440;28;20493;-69
2022/11/06 00:03:12;;;;;;;34.17;30.67;;;6.40;99.90;;;;;;4982953;28;20482;-69
2022/11/06 00:08:31;;;;;;;37.43;29.83;;;6.30;99.90;;;;;;4978426;28;20441;-69
2022/11/06 00:10:59;;;;;;;31.07;27.93;;;6.30;99.90;;;;;;4978313;28;20447;-70
2022/11/06 00:13:26;;;;;;;42.60;36.30;;;6.30;99.90;;;;;;4977579;28;20509;-69
2022/11/06 00:15:53;;;;;;;37.37;29.13;;;6.20;99.90;;;;;;4977052;28;21016;-68
2022/11/06 00:18:20;;;;;;;35.70;30.53;;;6.20;99.90;;;;;;4978203;28;20863;-67
2022/11/06 00:20:46;;;;;;;33.50;29.93;;;6.20;99.90;;;;;;4977450;28;20491;-68
2022/11/06 00:23:13;;;;;;;34.27;29.27;;;6.20;99.90;;;;;;4977341;28;20471;-69
2022/11/06 00:25:41;;;;;;;30.50;27.30;;;6.20;99.90;;;;;;4977535;28;20455;-69
2022/11/06 00:28:09;;;;;;;31.90;28.50;;;6.20;99.90;;;;;;4977293;28;20458;-70
2022/11/06 00:30:36;;;;;;;29.93;26.87;;;6.30;99.90;;;;;;4976266;28;20463;-70
2022/11/06 00:33:03;;;;;;;29.30;26.30;;;6.40;99.90;;;;;;4976764;28;20537;-71
2022/11/06 00:35:29;;;;;;;28.37;25.47;;;6.40;99.90;;;;;;4977095;28;20529;-70
2022/11/06 00:37:56;;;;;;;26.27;23.73;;;6.40;99.90;;;;;;4977334;28;20517;-70
2022/11/06 00:40:23;;;;;;;26.07;23.47;;;6.40;99.90;;;;;;4977490;28;20458;-69
2022/11/06 00:42:54;;;;;;;26.53;23.80;;;6.40;99.90;;;;;;4976874;28;20474;-70
2022/11/06 00:45:22;;;;;;;27.00;24.23;;;6.40;99.90;;;;;;4977484;28;20446;-69
2022/11/06 00:47:49;;;;;;;27.10;24.40;;;6.40;99.90;;;;;;4976775;28;20477;-69
2022/11/06 00:50:16;;;;;;;26.37;23.53;;;6.40;99.90;;;;;;4980842;28;20459;-70
2022/11/06 00:52:43;;;;;;;23.40;21.20;;;6.40;99.90;;;;;;4983714;28;20482;-70
2022/11/06 00:55:10;;;;;;;24.03;21.80;;;6.40;99.90;;;;;;4978688;28;20885;-70
2022/11/06 00:57:36;;;;;;;26.47;23.90;;;6.50;99.90;;;;;;4976160;28;20458;-69
2022/11/06 01:00:04;;;;;;;26.47;23.67;;;6.40;99.90;;;;;;4976375;28;20466;-69
2022/11/06 01:02:32;;;;;;;26.53;23.90;;;6.40;99.90;;;;;;4976322;28;20917;-69
2022/11/06 01:04:59;;;;;;;26.93;24.20;;;6.40;99.90;;;;;;4976476;28;20938;-69
2022/11/06 01:07:26;;;;;;;26.53;23.90;;;6.30;99.90;;;;;;4976481;28;20826;-69
2022/11/06 01:09:52;;;;;;;28.23;25.27;;;6.30;99.90;;;;;;4976467;28;20459;-70
2022/11/06 01:12:19;;;;;;;23.73;21.33;;;6.30;99.90;;;;;;4976289;28;20481;-69
2022/11/06 01:14:45;;;;;;;26.47;23.97;;;6.30;99.90;;;;;;4976223;28;20862;-69
2022/11/06 01:17:13;;;;;;;25.53;23.17;;;6.30;99.90;;;;;;4976266;28;20454;-69
2022/11/06 01:19:41;;;;;;;23.90;21.70;;;6.40;99.90;;;;;;4976069;28;20977;-69
2022/11/06 01:22:07;;;;;;;25.57;22.90;;;6.40;99.90;;;;;;4976116;28;20981;-69
2022/11/06 01:24:34;;;;;;;24.40;21.90;;;6.40;99.90;;;;;;4975894;28;20962;-69
2022/11/06 01:27:01;;;;;;;26.50;23.87;;;6.40;99.90;;;;;;4975779;28;20505;-70
2022/11/06 01:29:28;;;;;;;24.67;22.27;;;6.30;99.90;;;;;;4975714;28;20950;-69
2022/11/06 01:31:54;;;;;;;26.73;23.80;;;6.20;99.90;;;;;;4976215;28;20821;-69
2022/11/06 01:34:21;;;;;;;27.80;24.70;;;6.10;99.90;;;;;;4976263;28;20938;-68
2022/11/06 01:36:49;;;;;;;29.20;26.10;;;6.10;99.90;;;;;;4976190;28;20478;-69
2022/11/06 01:39:16;;;;;;;29.83;26.73;;;6.00;99.90;;;;;;4978854;28;20454;-70
2022/11/06 01:41:45;;;;;;;29.30;26.30;;;6.00;99.90;;;;;;4981805;28;20505;-69
2022/11/06 01:44:49;;;;;;;28.13;25.23;;;6.00;99.90;;;;;;4981709;28;20458;-69
2022/11/06 01:47:21;;;;;;;29.03;26.03;;;6.00;99.90;;;;;;4981564;28;20454;-69
2022/11/06 01:49:49;;;;;;;27.03;24.43;;;6.00;99.90;;;;;;4980828;28;20530;-69
2022/11/06 01:52:18;;;;;;;27.40;24.83;;;5.90;99.90;;;;;;4976375;28;20542;-69
2022/11/06 01:54:48;;;;;;;27.13;24.27;;;5.90;99.90;;;;;;4976171;28;20510;-69
2022/11/06 01:57:15;;;;;;;28.27;25.50;;;5.80;99.90;;;;;;4975558;28;20483;-70
2022/11/06 01:59:44;;;;;;;26.80;24.20;;;5.80;99.90;;;;;;4975303;28;20866;-69
2022/11/06 02:02:12;;;;;;;27.43;24.77;;;5.80;99.90;;;;;;4975460;28;20486;-69
2022/11/06 02:04:43;;;;;;;27.73;24.93;;;5.70;99.90;;;;;;4975529;28;20454;-69
2022/11/06 02:07:10;;;;;;;28.17;25.37;;;5.60;99.90;;;;;;4975353;28;20448;-69
2022/11/06 02:09:38;;;;;;;25.70;23.20;;;5.60;99.90;;;;;;4975271;28;20878;-69
2022/11/06 02:12:13;;;;;;;27.70;24.90;;;5.60;99.90;;;;;;4975127;28;20533;-70
2022/11/06 02:14:48;;;;;;;25.83;23.23;;;5.50;99.90;;;;;;4975728;28;20443;-69
2022/11/06 02:17:29;;;;;;;26.17;22.90;;;5.40;99.90;;;;;;4975062;28;20462;-69
2022/11/06 02:20:01;;;;;;;27.87;25.03;;;5.40;99.90;;;;;;4975258;28;20489;-69
2022/11/06 02:23:09;;;;;;;27.23;23.70;;;5.30;99.90;;;;;;4975937;28;20582;-69
2022/11/06 02:25:48;;;;;;;24.20;21.57;;;5.30;99.90;;;;;;4958667;28;20953;-69
2022/11/06 02:28:22;;;;;;;25.73;23.03;;;5.20;99.90;;;;;;4974959;28;20435;-70
2022/11/06 02:30:50;;;;;;;25.47;22.77;;;5.20;99.90;;;;;;4975042;28;20489;-70
2022/11/06 02:33:23;;;;;;;25.10;22.60;;;5.10;99.90;;;;;;4975848;28;20861;-69
2022/11/06 02:35:54;;;;;;;27.17;23.90;;;5.10;99.90;;;;;;4974983;28;20489;-70
2022/11/06 02:38:26;;;;;;;25.33;21.13;;;5.10;99.90;;;;;;4975203;28;20466;-70
2022/11/06 02:40:55;;;;;;;24.73;22.23;;;5.00;99.90;;;;;;4974662;28;20443;-70
2022/11/06 02:43:28;;;;;;;25.63;23.00;;;5.00;99.90;;;;;;4974930;28;20479;-69
2022/11/06 02:45:57;;;;;;;25.60;22.60;;;4.90;99.90;;;;;;4974998;28;20446;-70
2022/11/06 02:48:30;;;;;;;25.67;22.63;;;4.80;99.90;;;;;;4974951;28;20454;-69
2022/11/06 02:51:00;;;;;;;27.33;24.30;;;4.80;99.90;;;;;;4974821;28;20439;-69
2022/11/06 02:53:27;;;;;;;30.73;24.10;;;4.70;99.90;;;;;;4974895;28;20548;-70
2022/11/06 02:55:58;;;;;;;28.87;24.63;;;4.70;99.90;;;;;;4977973;28;21025;-69
2022/11/06 02:58:30;;;;;;;29.40;24.20;;;4.70;99.90;;;;;;4978445;28;20938;-69
2022/11/06 03:01:04;;;;;;;28.07;24.30;;;4.60;99.90;;;;;;4979037;28;20470;-68
2022/11/06 03:03:35;;;;;;;29.90;23.63;;;4.60;99.90;;;;;;4978661;28;20816;-69
2022/11/06 03:06:06;;;;;;;34.60;22.97;;;4.50;99.90;;;;;;4978791;28;20503;-70
2022/11/06 03:08:39;;;;;;;105.43;27.53;;;4.50;99.90;;;;;;4978502;28;20447;-68
2022/11/06 03:11:13;;;;;;;83.97;26.50;;;4.40;99.90;;;;;;4979298;28;20443;-70
2022/11/06 03:13:50;;;;;;;82.07;26.60;;;4.30;99.90;;;;;;4978523;28;20513;-69
2022/11/06 03:16:34;;;;;;;269.17;30.90;;;4.30;99.90;;;;;;4979150;28;20532;-69
2022/11/06 03:19:07;;;;;;;346.80;34.20;;;4.30;99.90;;;;;;4978353;28;20917;-68
2022/11/06 03:21:44;;;;;;;287.57;30.43;;;4.30;99.90;;;;;;4978217;28;20443;-69
2022/11/06 03:24:16;;;;;;;177.03;25.70;;;4.20;99.90;;;;;;4978391;28;20450;-69
2022/11/06 03:26:47;;;;;;;114.93;25.90;;;4.20;99.90;;;;;;4978114;28;20887;-69
2022/11/06 03:29:20;;;;;;;97.70;24.87;;;4.10;99.90;;;;;;4978510;28;20447;-69
2022/11/06 03:31:51;;;;;;;152.87;26.90;;;4.10;99.90;;;;;;4979357;28;20478;-68
2022/11/06 03:34:27;;;;;;;91.40;25.17;;;4.10;99.90;;;;;;4978612;28;20508;-68
2022/11/06 03:37:01;;;;;;;191.00;31.00;;;4.10;99.90;;;;;;4978302;28;20473;-70
2022/11/06 03:39:32;;;;;;;87.00;27.33;;;4.00;99.90;;;;;;4981220;28;20443;-69
2022/11/06 03:42:03;;;;;;;143.03;29.97;;;4.00;99.90;;;;;;4983380;28;20993;-69
2022/11/06 03:44:36;;;;;;;245.00;30.93;;;3.90;99.90;;;;;;4979244;28;20443;-70
2022/11/06 03:47:10;;;;;;;98.90;28.30;;;3.90;99.90;;;;;;4977946;28;20445;-69
2022/11/06 03:49:42;;;;;;;138.10;28.87;;;3.80;99.90;;;;;;4977880;28;20438;-69
2022/11/06 03:52:14;;;;;;;235.90;31.03;;;3.80;99.90;;;;;;4977720;28;20499;-70
2022/11/06 03:54:48;;;;;;;444.50;36.60;;;3.80;99.90;;;;;;4977401;28;20985;-69
2022/11/06 03:57:21;;;;;;;265.90;30.07;;;3.80;99.90;;;;;;4977288;28;20966;-70
2022/11/06 03:59:54;;;;;;;477.53;35.50;;;3.80;99.90;;;;;;4977612;28;20439;-69
2022/11/06 04:02:23;;;;;;;379.47;34.17;;;3.80;99.90;;;;;;4977086;28;21020;-69
2022/11/06 04:04:55;;;;;;;439.10;35.37;;;3.70;99.90;;;;;;4977454;28;20454;-69
2022/11/06 04:07:25;;;;;;;392.87;35.97;;;3.70;99.90;;;;;;4976109;28;20990;-69
2022/11/06 04:15:34;;;;;;;380.93;34.90;;;3.70;99.90;;;;;;4960288;28;20532;-68
2022/11/06 04:18:01;;;;;;;478.23;34.90;;;3.60;99.90;;;;;;4977143;28;20459;-70
2022/11/06 04:23:27;;;;;;;358.07;33.87;;;3.60;99.90;;;;;;4977009;28;20497;-69
2022/11/06 04:28:55;;;;;;;218.70;32.53;;;3.60;99.90;;;;;;4977189;28;20930;-68
2022/11/06 04:31:30;;;;;;;274.83;34.37;;;3.50;99.90;;;;;;4977237;28;20973;-69
2022/11/06 04:34:00;;;;;;;298.70;34.27;;;3.50;99.90;;;;;;4977142;28;20470;-69
2022/11/06 04:36:33;;;;;;;216.23;31.40;;;3.50;99.90;;;;;;4977393;28;20478;-70
2022/11/06 04:39:10;;;;;;;276.33;34.63;;;3.40;99.90;;;;;;4977053;28;20490;-68
2022/11/06 04:41:43;;;;;;;290.17;33.83;;;3.40;99.90;;;;;;4976677;28;20443;-69
2022/11/06 04:44:14;;;;;;;490.13;40.63;;;3.40;99.90;;;;;;4976930;28;20443;-69
2022/11/06 04:46:47;;;;;;;484.97;41.83;;;3.30;99.90;;;;;;4976950;28;20439;-69
2022/11/06 04:49:15;;;;;;;253.60;34.27;;;3.30;99.90;;;;;;4976808;28;20501;-69
2022/11/06 04:51:45;;;;;;;395.70;39.87;;;3.40;99.90;;;;;;4976649;28;20635;-68
2022/11/06 04:54:13;;;;;;;426.20;41.87;;;3.40;99.90;;;;;;4976778;28;20458;-69
2022/11/06 04:56:40;;;;;;;862.53;53.93;;;3.30;99.90;;;;;;4976552;28;20557;-69
2022/11/06 04:59:12;;;;;;;730.30;50.00;;;3.40;99.90;;;;;;4976985;28;20862;-69
2022/11/06 05:01:38;;;;;;;520.67;44.80;;;3.40;99.90;;;;;;4976480;28;20525;-68
2022/11/06 05:04:06;;;;;;;449.43;44.30;;;3.40;99.90;;;;;;4976509;28;20450;-70
2022/11/06 05:06:33;;;;;;;343.10;37.50;;;3.40;99.90;;;;;;4976581;28;20450;-68
2022/11/06 05:09:00;;;;;;;202.00;32.77;;;3.30;99.90;;;;;;4976921;28;20454;-69
2022/11/06 05:11:26;;;;;;;155.70;31.80;;;3.40;99.90;;;;;;4976559;28;20454;-69
2022/11/06 05:13:53;;;;;;;256.20;35.50;;;3.40;99.90;;;;;;4976371;28;20942;-70
2022/11/06 05:16:20;;;;;;;95.70;30.20;;;3.50;99.90;;;;;;4976343;28;20474;-69
2022/11/06 05:18:46;;;;;;;413.60;36.47;;;3.60;99.90;;;;;;4975448;28;20463;-69
2022/11/06 05:23:58;;;;;;;219.20;31.60;;;3.60;99.90;;;;;;4976355;28;20430;-69
2022/11/06 05:26:25;;;;;;;80.57;26.70;;;3.60;99.90;;;;;;4976183;28;20451;-69
2022/11/06 05:28:52;;;;;;;200.87;32.73;;;3.70;99.90;;;;;;4976103;28;20458;-70
2022/11/06 05:31:18;;;;;;;196.77;32.30;;;3.80;99.90;;;;;;4976052;28;20481;-70
2022/11/06 05:33:45;;;;;;;71.03;27.23;;;3.80;99.90;;;;;;4975844;28;20487;-70
2022/11/06 05:36:13;;;;;;;109.00;28.93;;;3.90;99.90;;;;;;4975928;28;20455;-71
2022/11/06 05:38:40;;;;;;;92.93;27.70;;;3.90;99.90;;;;;;4976028;28;20454;-70
2022/11/06 05:41:06;;;;;;;114.80;28.63;;;4.00;99.90;;;;;;4975732;28;20458;-68
2022/11/06 05:43:33;;;;;;;164.17;28.90;;;4.00;99.90;;;;;;4975743;28;20994;-70
2022/11/06 05:46:00;;;;;;;366.83;35.87;;;4.00;99.90;;;;;;4976451;28;20451;-69
2022/11/06 05:48:27;;;;;;;50.43;24.20;;;4.00;99.90;;;;;;4976440;28;20537;-69
2022/11/06 05:50:53;;;;;;;759.67;48.13;;;4.00;99.90;;;;;;4975519;28;20879;-69
2022/11/06 05:53:21;;;;;;;69.00;27.30;;;4.00;99.90;;;;;;4975587;28;20482;-69
2022/11/06 05:55:48;;;;;;;168.37;29.37;;;4.00;99.90;;;;;;4975598;28;20466;-69
2022/11/06 05:58:15;;;;;;;213.77;29.10;;;4.00;99.90;;;;;;4975558;28;20467;-69
2022/11/06 06:00:41;;;;;;;379.43;36.00;;;4.10;99.90;;;;;;4975470;28;20466;-69
2022/11/06 06:03:09;;;;;;;166.23;28.07;;;4.10;99.90;;;;;;4975488;28;20478;-70
2022/11/06 06:05:36;;;;;;;101.33;24.70;;;4.10;99.90;;;;;;4975540;28;20461;-70
2022/11/06 06:08:02;;;;;;;163.17;27.80;;;4.10;99.90;;;;;;4975502;28;20454;-69
2022/11/06 06:10:30;;;;;;;388.70;33.33;;;4.10;99.90;;;;;;4975690;28;20502;-69
2022/11/06 06:12:57;;;;;;;552.57;37.37;;;4.10;99.90;;;;;;4975599;28;20487;-70
2022/11/06 06:15:24;;;;;;;225.97;28.00;;;4.00;99.90;;;;;;4975492;28;20458;-70
2022/11/06 06:17:50;;;;;;;347.77;33.43;;;4.00;99.90;;;;;;4975186;28;20478;-70
2022/11/06 06:20:17;;;;;;;429.63;35.03;;;4.00;99.90;;;;;;4975325;28;20455;-69
2022/11/06 06:22:52;;;;;;;130.63;25.43;;;3.90;99.90;;;;;;4975473;28;20579;-70
2022/11/06 06:25:18;;;;;;;450.77;34.50;;;3.90;99.90;;;;;;4975205;28;20442;-70
2022/11/06 06:27:46;;;;;;;426.20;33.50;;;3.80;99.90;;;;;;4975273;28;20485;-70
2022/11/06 06:30:13;;;;;;;99.70;27.23;;;3.70;99.90;;;;;;4982308;28;20513;-70
2022/11/06 06:32:40;;;;;;;185.17;27.67;;;3.70;99.90;;;;;;4982325;28;20474;-69
2022/11/06 06:35:07;;;;;;;394.33;33.83;;;3.70;99.90;;;;;;4975503;28;20443;-69
2022/11/06 06:37:34;;;;;;;375.53;34.23;;;3.70;99.90;;;;;;4975166;28;20573;-69
2022/11/06 06:40:00;;;;;;;350.67;32.80;;;3.70;99.90;;;;;;4975027;28;20482;-69
2022/11/06 06:42:28;;;;;;;297.23;31.33;;;3.70;99.90;;;;;;4975088;28;20533;-70
2022/11/06 06:44:56;;;;;;;192.43;29.37;;;3.70;99.90;;;;;;4974975;28;20458;-69
2022/11/06 06:47:22;;;;;;;304.17;34.23;;;3.70;99.90;;;;;;4974911;28;20451;-70
2022/11/06 06:49:49;;;;;;;275.40;34.27;;;3.70;99.90;;;;;;4974947;28;20953;-70
2022/11/06 06:52:16;;;;;;;349.97;36.50;;;3.60;99.90;;;;;;4974965;28;20526;-70
2022/11/06 06:54:42;;;;;;;178.40;29.70;;;3.70;99.90;;;;;;4974851;28;20462;-70
2022/11/06 06:57:09;;;;;;;265.57;33.60;;;3.70;99.90;;;;;;4974634;28;21060;-69
2022/11/06 06:59:36;;;;;;;251.03;32.13;;;3.80;99.90;;;;;;4974787;28;20451;-70
2022/11/06 07:02:04;;;;;;;217.47;31.17;;;3.80;99.90;;;;;;4974800;28;20483;-71
2022/11/06 07:04:31;;;;;;;154.53;30.10;;;3.90;99.90;;;;;;4974876;28;20459;-70
2022/11/06 07:06:57;;;;;;;242.23;31.93;;;3.90;99.90;;;;;;4974756;28;20458;-71
2022/11/06 07:09:24;;;;;;;301.83;36.50;;;4.00;99.90;;;;;;4974806;28;20587;-70
2022/11/06 07:11:50;;;;;;;229.70;34.30;;;4.00;99.90;;;;;;4974838;28;20545;-70
2022/11/06 07:14:17;;;;;;;202.33;34.83;;;4.00;99.90;;;;;;4974776;28;20486;-69
2022/11/06 07:16:44;;;;;;;142.00;33.50;;;4.10;99.90;;;;;;4974213;28;20942;-70
2022/11/06 07:19:12;;;;;;;72.37;31.77;;;4.20;99.90;;;;;;4974660;28;20493;-70
2022/11/06 07:21:38;;;;;;;138.03;34.37;;;4.20;99.90;;;;;;4975006;28;20443;-71
2022/11/06 07:24:06;;;;;;;133.73;30.90;;;4.30;99.90;;;;;;4974900;28;20438;-70
2022/11/06 07:26:32;;;;;;;126.13;29.77;;;4.20;99.90;;;;;;4974621;28;20442;-71
2022/11/06 07:28:59;;;;;;;204.87;32.07;;;4.30;99.90;;;;;;4974545;28;20961;-70
2022/11/06 07:31:26;;;;;;;236.73;31.17;;;4.30;99.90;;;;;;4974432;28;20969;-70
2022/11/06 07:33:53;;;;;;;140.43;29.00;;;4.30;99.90;;;;;;4974359;28;20533;-70
2022/11/06 07:36:21;;;;;;;82.90;25.80;;;4.40;99.90;;;;;;4974602;28;20466;-70
2022/11/06 07:38:48;;;;;;;117.53;24.40;;;4.50;99.90;;;;;;4974296;28;20470;-71
2022/11/06 07:41:15;;;;;;;49.80;21.60;;;4.60;99.90;;;;;;4976834;28;20459;-70
2022/11/06 07:43:43;;;;;;;45.20;22.67;;;4.70;99.90;;;;;;4977804;28;20478;-70
2022/11/06 07:46:12;;;;;;;59.73;19.63;;;4.80;99.90;;;;;;4977628;28;20976;-70
2022/11/06 07:48:39;;;;;;;65.27;19.00;;;5.00;99.90;;;;;;4978097;28;20453;-70
2022/11/06 07:51:08;;;;;;;73.83;18.60;;;5.10;99.90;;;;;;4978637;28;20462;-71
2022/11/06 07:53:37;;;;;;;59.43;17.13;;;5.20;99.90;;;;;;4977687;28;20475;-70
2022/11/06 07:56:03;;;;;;;180.50;19.33;;;5.40;99.90;;;;;;4978969;28;20458;-70
2022/11/06 07:58:31;;;;;;;211.70;20.90;;;5.50;99.90;;;;;;4977284;28;21064;-71
2022/11/06 08:00:58;;;;;;;223.13;20.33;;;5.50;99.90;;;;;;4977741;28;20477;-69
2022/11/06 08:03:28;;;;;;;325.53;23.20;;;5.50;99.90;;;;;;4977198;28;20478;-69
2022/11/06 08:05:55;;;;;;;30.87;15.00;;;5.50;99.90;;;;;;4977789;28;20584;-69
2022/11/06 08:08:22;;;;;;;145.50;16.00;;;5.70;99.90;;;;;;4977211;28;20455;-68
2022/11/06 08:10:52;;;;;;;125.70;15.60;;;6.10;99.90;;;;;;4977138;28;20939;-68
2022/11/06 08:13:19;;;;;;;109.87;16.37;;;6.30;99.90;;;;;;4977385;28;20478;-69
2022/11/06 08:15:46;;;;;;;72.43;14.83;;;6.30;99.90;;;;;;4977585;28;20518;-67
2022/11/06 08:18:13;;;;;;;28.87;12.70;;;6.50;99.90;;;;;;4978601;28;20482;-69
2022/11/06 08:20:40;;;;;;;13.43;12.13;;;6.80;99.90;;;;;;4977729;28;20438;-69
2022/11/06 08:23:10;;;;;;;13.40;11.80;;;7.10;99.90;;;;;;4977539;28;20479;-69
2022/11/06 08:25:37;;;;;;;11.53;10.63;;;7.60;99.90;;;;;;4977534;28;20450;-69
2022/11/06 08:28:05;;;;;;;11.33;10.33;;;8.10;99.90;;;;;;4977545;28;20506;-70
2022/11/06 08:30:32;;;;;;;11.33;10.47;;;8.50;99.90;;;;;;4978021;28;20455;-70
2022/11/06 08:33:01;;;;;;;10.30;9.40;;;8.90;99.90;;;;;;4977185;28;20479;-69
2022/11/06 08:35:28;;;;;;;8.83;8.23;;;9.30;99.90;;;;;;4976833;28;20886;-69
2022/11/06 08:37:55;;;;;;;8.87;8.20;;;10.00;99.90;;;;;;4977122;28;20970;-68
2022/11/06 08:40:22;;;;;;;8.90;8.20;;;10.60;99.90;;;;;;4977509;28;20462;-68
2022/11/06 08:42:49;;;;;;;8.57;7.87;;;11.40;99.90;;;;;;4977256;28;20497;-68
2022/11/06 08:45:17;;;;;;;8.20;7.60;;;11.60;99.90;;;;;;4976876;28;20525;-70
2022/11/06 08:47:44;;;;;;;8.73;7.90;;;12.50;99.90;;;;;;4976762;28;20604;-68
2022/11/06 08:50:10;;;;;;;7.30;6.80;;;13.20;99.90;;;;;;4976768;28;20455;-70
2022/11/06 08:52:37;;;;;;;7.50;6.80;;;14.10;99.90;;;;;;4976005;28;20474;-69
2022/11/06 08:55:04;;;;;;;7.60;7.00;;;14.90;99.90;;;;;;4976712;28;20546;-69
2022/11/06 08:57:31;;;;;;;8.20;7.60;;;15.50;99.90;;;;;;4976609;28;20482;-70
2022/11/06 08:59:58;;;;;;;7.63;7.03;;;16.00;99.90;;;;;;4976635;28;20458;-69
2022/11/06 09:02:26;;;;;;;8.47;7.53;;;16.20;99.90;;;;;;4976593;28;20537;-69
2022/11/06 09:04:53;;;;;;;7.03;6.43;;;16.60;99.90;;;;;;4976585;28;20572;-69
2022/11/06 09:07:20;;;;;;;7.30;6.70;;;17.10;99.90;;;;;;4976513;28;20513;-70
2022/11/06 09:09:46;;;;;;;8.07;7.37;;;17.30;98.80;;;;;;4977492;28;20573;-69
2022/11/06 09:12:13;;;;;;;8.40;7.80;;;17.50;97.40;;;;;;4976120;28;20826;-68
2022/11/06 09:14:40;;;;;;;8.90;8.20;;;17.80;96.30;;;;;;4976243;28;20549;-69
2022/11/06 09:17:06;;;;;;;9.33;7.90;;;18.00;96.10;;;;;;4979248;28;20466;-69
2022/11/06 09:19:34;;;;;;;8.63;7.87;;;18.20;93.90;;;;;;4981123;28;20474;-69
2022/11/06 09:22:01;;;;;;;9.00;8.10;;;17.90;93.70;;;;;;4977369;28;20530;-69
2022/11/06 09:24:29;;;;;;;8.50;7.80;;;17.30;93.10;;;;;;4976349;28;20455;-69
2022/11/06 09:26:55;;;;;;;8.80;8.00;;;17.20;95.30;;;;;;4976110;28;21000;-70
2022/11/06 09:29:22;;;;;;;8.53;7.93;;;17.40;94.90;;;;;;4976071;28;20482;-69
2022/11/06 09:31:48;;;;;;;7.80;7.10;;;17.20;95.60;;;;;;4975981;28;20466;-68
2022/11/06 09:34:15;;;;;;;9.17;8.37;;;17.10;95.40;;;;;;4976038;28;20458;-69
2022/11/06 09:36:43;;;;;;;8.37;7.70;;;17.10;95.90;;;;;;4975564;28;20798;-69
2022/11/06 09:39:10;;;;;;;8.83;8.10;;;17.50;95.80;;;;;;4975910;28;20478;-70
2022/11/06 09:41:49;;;;;;;8.87;8.07;;;18.00;93.90;;;;;;4975757;28;20513;-72
2022/11/06 09:44:30;;;;;;;8.47;7.80;;;18.50;94.00;;;;;;4975451;28;20443;-69
2022/11/06 09:47:00;;;;;;;9.20;8.50;;;19.10;92.80;;;;;;4975964;28;20483;-70
2022/11/06 09:49:33;;;;;;;8.83;8.13;;;19.50;91.00;;;;;;4975717;28;20859;-69
2022/11/06 09:52:06;;;;;;;8.63;8.03;;;20.00;90.90;;;;;;4975615;28;20474;-69
2022/11/06 09:54:39;;;;;;;8.60;7.87;;;20.10;88.80;;;;;;4975473;28;20451;-68
2022/11/06 09:57:13;;;;;;;8.03;7.43;;;20.60;89.50;;;;;;4975307;28;20788;-68
2022/11/06 09:59:40;;;;;;;7.50;6.90;;;20.60;86.10;;;;;;4975355;28;20462;-70
2022/11/06 10:02:21;;;;;;;9.00;8.30;;;20.90;84.40;;;;;;4975232;28;20558;-68
2022/11/06 10:04:51;;;;;;;9.50;8.30;;;21.00;83.40;;;;;;4975739;28;20443;-68
2022/11/06 10:07:27;;;;;;;8.37;7.67;;;20.70;82.70;;;;;;4976003;28;20501;-70
2022/11/06 10:09:55;;;;;;;9.40;8.60;;;20.50;83.30;;;;;;4975245;28;20980;-69
2022/11/06 10:12:32;;;;;;;7.93;7.33;;;20.40;82.40;;;;;;4975514;28;20478;-69
2022/11/06 10:15:06;;;;;;;9.50;8.60;;;20.30;83.80;;;;;;4975292;28;20438;-69
2022/11/06 10:17:44;;;;;;;8.50;7.77;;;20.00;85.90;;;;;;4975366;28;20854;-70
2022/11/06 10:20:18;;;;;;;8.87;7.57;;;19.80;87.40;;;;;;4975200;28;20799;-69
2022/11/06 10:22:56;;;;;;;10.50;7.77;;;19.70;85.10;;;;;;4974772;28;20474;-69
2022/11/06 10:25:35;;;;;;;7.80;7.13;;;19.50;85.00;;;;;;4975190;28;20451;-70
2022/11/06 10:28:04;;;;;;;7.87;7.27;;;19.40;87.30;;;;;;4975055;28;20489;-70
2022/11/06 10:30:40;;;;;;;7.90;7.20;;;19.30;86.10;;;;;;4975590;28;20459;-69
2022/11/06 10:33:32;;;;;;;7.90;7.17;;;19.30;86.10;;;;;;4975055;28;20537;-69
2022/11/06 10:36:04;;;;;;;8.57;7.87;;;19.00;84.90;;;;;;4972337;28;20876;-70
2022/11/06 10:38:34;;;;;;;8.37;7.67;;;18.50;86.40;;;;;;4975301;28;20518;-68
2022/11/06 10:41:02;;;;;;;8.00;7.30;;;18.00;88.70;;;;;;4974753;28;20850;-69
2022/11/06 10:43:32;;;;;;;6.53;6.03;;;17.70;90.50;;;;;;4975101;28;20525;-68
2022/11/06 10:46:06;;;;;;;7.40;6.80;;;17.20;90.70;;;;;;4974896;28;20970;-68
2022/11/06 10:48:38;;;;;;;8.30;7.50;;;16.60;91.90;;;;;;4975137;28;20439;-68
2022/11/06 10:51:23;;;;;;;8.07;7.43;;;16.00;91.90;;;;;;4975274;28;20439;-70
2022/11/06 10:54:04;;;;;;;8.63;7.93;;;15.40;93.80;;;;;;4974885;28;20881;-69
2022/11/06 10:56:53;;;;;;;8.73;8.00;;;14.90;96.00;;;;;;4974928;28;20447;-69
2022/11/06 10:59:20;;;;;;;8.80;8.00;;;14.50;97.90;;;;;;4974704;28;20860;-69
2022/11/06 11:01:47;;;;;;;8.13;7.43;;;14.10;99.60;;;;;;4974547;28;20466;-69
2022/11/06 11:04:14;;;;;;;9.23;8.43;;;13.80;99.90;;;;;;4975008;28;20455;-67
2022/11/06 11:06:41;;;;;;;9.27;8.37;;;13.60;99.90;;;;;;4974870;28;20525;-66
2022/11/06 11:09:29;;;;;;;9.83;8.93;;;13.40;99.90;;;;;;4975006;28;20439;-65
2022/11/06 11:11:55;;;;;;;9.30;8.40;;;13.30;99.90;;;;;;4974640;28;21076;-66
2022/11/06 11:14:24;;;;;;;9.43;8.57;;;13.30;99.90;;;;;;4974899;28;20801;-66
2022/11/06 11:16:51;;;;;;;8.83;8.13;;;13.30;99.90;;;;;;4978204;28;20438;-66
2022/11/06 11:19:27;;;;;;;9.37;8.60;;;13.50;99.90;;;;;;4978648;28;20498;-66
2022/11/06 11:21:56;;;;;;;9.30;8.40;;;13.60;99.90;;;;;;4978589;28;20478;-66
2022/11/06 11:24:25;;;;;;;8.50;7.63;;;13.60;99.90;;;;;;4978742;28;20459;-66
2022/11/06 11:26:54;;;;;;;7.17;6.67;;;13.50;99.90;;;;;;4978452;28;20454;-65
2022/11/06 11:29:24;;;;;;;8.67;7.97;;;13.50;99.90;;;;;;4978361;28;20855;-66
2022/11/06 11:31:54;;;;;;;8.83;8.13;;;13.40;99.90;;;;;;4978280;28;20557;-66
2022/11/06 11:34:24;;;;;;;8.50;7.70;;;13.40;99.90;;;;;;4978369;28;20443;-66
2022/11/06 11:36:55;;;;;;;8.17;7.57;;;13.40;99.90;;;;;;4978147;28;20505;-66
2022/11/06 11:39:26;;;;;;;8.00;7.40;;;13.30;99.90;;;;;;4978138;28;20555;-66
2022/11/06 11:41:53;;;;;;;6.93;6.33;;;13.40;99.90;;;;;;4978031;28;20475;-66
2022/11/06 11:44:20;;;;;;;7.57;6.97;;;13.40;99.90;;;;;;4977645;28;20458;-66
2022/11/06 11:46:50;;;;;;;6.33;5.83;;;13.40;99.90;;;;;;4978688;28;20972;-66
2022/11/06 11:49:28;;;;;;;7.10;6.60;;;13.50;99.90;;;;;;4978749;28;20545;-65
2022/11/06 11:51:55;;;;;;;7.50;7.00;;;13.60;99.90;;;;;;4978644;28;20553;-65
2022/11/06 11:54:26;;;;;;;7.73;7.03;;;13.70;99.90;;;;;;4977876;28;20454;-66
2022/11/06 11:56:55;;;;;;;6.87;6.37;;;13.80;99.90;;;;;;4978164;28;20849;-66
2022/11/06 11:59:26;;;;;;;7.00;6.40;;;13.90;99.90;;;;;;4977885;28;20537;-65
2022/11/06 12:01:53;;;;;;;6.97;6.37;;;13.90;99.90;;;;;;4977713;28;20540;-65
2022/11/06 12:04:25;;;;;;;6.93;6.23;;;13.90;99.90;;;;;;4979549;28;20450;-65
2022/11/06 12:07:01;;;;;;;6.77;6.17;;;14.00;99.90;;;;;;4980668;28;20502;-65
2022/11/06 12:09:31;;;;;;;7.10;6.40;;;14.00;99.90;;;;;;4978061;28;20486;-65
2022/11/06 12:12:01;;;;;;;6.33;5.93;;;14.10;99.90;;;;;;4977730;28;20482;-66
2022/11/06 12:14:33;;;;;;;7.03;6.53;;;14.20;99.90;;;;;;4977683;28;20450;-66
2022/11/06 12:17:13;;;;;;;7.30;5.63;;;14.30;99.90;;;;;;4977594;28;20450;-66
2022/11/06 12:19:44;;;;;;;5.20;4.80;;;14.30;99.90;;;;;;4977377;28;20533;-65
2022/11/06 12:22:18;;;;;;;4.60;4.30;;;14.40;99.90;;;;;;4977688;28;20557;-65
2022/11/06 12:24:50;;;;;;;5.10;4.70;;;14.50;99.90;;;;;;4977418;28;20439;-65
2022/11/06 12:27:23;;;;;;;4.20;4.00;;;14.50;99.90;;;;;;4976553;28;20502;-65
2022/11/06 12:29:56;;;;;;;4.37;4.07;;;14.50;99.90;;;;;;4977492;28;20493;-65
2022/11/06 12:32:33;;;;;;;4.70;4.40;;;14.50;99.90;;;;;;4977485;28;20482;-65
2022/11/06 12:35:06;;;;;;;4.73;4.43;;;14.50;99.90;;;;;;4977320;28;20442;-65
2022/11/06 12:37:43;;;;;;;3.80;3.60;;;14.60;99.90;;;;;;4977154;28;20445;-65
2022/11/06 12:40:20;;;;;;;3.77;3.57;;;14.70;99.90;;;;;;4977259;28;20517;-65
2022/11/06 12:43:02;;;;;;;3.73;3.53;;;14.70;99.90;;;;;;4976714;28;21009;-65
2022/11/06 12:45:42;;;;;;;3.30;3.10;;;14.50;99.90;;;;;;4976860;28;20439;-65
2022/11/06 12:48:22;;;;;;;3.47;3.27;;;14.30;99.90;;;;;;4977035;28;20497;-65
2022/11/06 12:50:55;;;;;;;3.00;2.90;;;14.10;99.90;;;;;;4977423;28;20518;-66
2022/11/06 12:53:36;;;;;;;4.60;4.20;;;13.80;99.90;;;;;;4977074;28;20881;-65
2022/11/06 12:56:16;;;;;;;3.80;3.60;;;13.50;99.90;;;;;;4976765;28;20451;-65
2022/11/06 12:59:05;;;;;;;2.90;2.80;;;13.30;99.90;;;;;;4976626;28;20513;-65
2022/11/06 13:01:51;;;;;;;4.00;3.70;;;13.20;99.90;;;;;;4976266;28;20946;-66
2022/11/06 13:04:35;;;;;;;3.30;3.10;;;13.20;99.90;;;;;;4976752;28;20442;-65
2022/11/06 13:07:24;;;;;;;3.47;3.27;;;13.20;99.90;;;;;;4976845;28;20445;-65
2022/11/06 13:10:03;;;;;;;4.13;3.83;;;13.10;99.90;;;;;;4974045;28;20443;-64